Time;durP1;ratioP1;P1;durP2;ratioP2;P2;SDS_P1;SDS_P2;PMS_P1;PMS_P2;Temp;Humidity;BMP_temperature;BMP_pressure;BME280_temperature;BME280_humidity;BME280_pressure;Samples;Min_cycle;Max_cycle;Signal;HPM_P1;HPM_P2
2022/02/06 00:02:27;;;;;;;5.77;2.00;;;1.20;99.90;;;;;;4992666;28;20027;-86
2022/02/06 00:04:53;;;;;;;6.70;2.53;;;1.20;99.90;;;;;;5014035;28;20025;-86
2022/02/06 00:07:19;;;;;;;4.77;2.10;;;1.20;99.90;;;;;;5011382;28;20030;-86
2022/02/06 00:09:46;;;;;;;6.60;2.30;;;1.10;99.90;;;;;;5013622;28;20029;-87
2022/02/06 00:12:12;;;;;;;5.77;2.20;;;1.10;99.90;;;;;;5013913;28;20076;-85
2022/02/06 00:14:38;;;;;;;3.43;2.00;;;1.00;99.90;;;;;;4996062;28;20038;-85
2022/02/06 00:17:05;;;;;;;3.40;2.10;;;1.00;99.90;;;;;;5013557;28;20049;-86
2022/02/06 00:19:31;;;;;;;6.53;1.93;;;0.90;99.90;;;;;;4996037;28;20104;-85
2022/02/06 00:21:57;;;;;;;5.80;2.17;;;0.90;99.90;;;;;;4996441;28;20049;-86
2022/02/06 00:24:37;;;;;;;4.97;2.27;;;0.80;99.90;;;;;;5013389;28;20113;-86
2022/02/06 00:27:07;;;;;;;6.87;2.20;;;0.80;99.90;;;;;;5013542;28;20025;-86
2022/02/06 00:29:46;;;;;;;3.97;1.87;;;0.80;99.90;;;;;;5013590;28;20021;-87
2022/02/06 00:32:25;;;;;;;3.97;1.83;;;0.80;99.90;;;;;;5013837;28;20565;-87
2022/02/06 00:35:17;;;;;;;7.23;2.73;;;0.80;99.90;;;;;;5013648;28;20053;-86
2022/02/06 00:40:23;;;;;;;4.57;2.30;;;1.00;99.90;;;;;;5013716;28;20033;-87
2022/02/06 00:42:48;;;;;;;6.93;1.80;;;1.20;99.90;;;;;;5013525;28;20022;-87
2022/02/06 00:45:14;;;;;;;6.40;1.97;;;1.20;99.90;;;;;;5013213;28;20475;-87
2022/02/06 00:47:40;;;;;;;7.77;2.10;;;1.20;99.90;;;;;;5013665;28;20018;-87
2022/02/06 00:50:07;;;;;;;6.33;1.97;;;1.20;99.90;;;;;;5013333;28;20045;-87
2022/02/06 00:52:39;;;;;;;5.30;2.10;;;1.30;99.90;;;;;;4995743;28;20026;-86
2022/02/06 00:55:05;;;;;;;9.37;2.97;;;1.40;99.90;;;;;;5013296;28;20145;-87
2022/02/06 00:57:30;;;;;;;6.43;1.90;;;1.40;99.90;;;;;;5013120;28;20097;-86
2022/02/06 00:59:56;;;;;;;5.17;1.77;;;1.50;99.90;;;;;;5012915;28;20384;-87
2022/02/06 01:02:22;;;;;;;7.07;2.37;;;1.50;99.90;;;;;;5009836;28;20100;-86
2022/02/06 01:04:48;;;;;;;8.90;1.90;;;1.60;99.90;;;;;;5013103;28;20096;-87
2022/02/06 01:07:13;;;;;;;6.87;2.57;;;1.60;99.90;;;;;;5013087;28;20475;-86
2022/02/06 01:09:39;;;;;;;6.20;2.07;;;1.70;99.90;;;;;;5012778;28;20037;-87
2022/02/06 01:12:05;;;;;;;5.77;2.00;;;1.60;99.90;;;;;;5012720;28;20522;-87
2022/02/06 01:19:53;;;;;;;6.30;1.97;;;1.50;99.90;;;;;;5012895;28;20125;-85
2022/02/06 01:22:23;;;;;;;5.33;1.77;;;1.50;99.90;;;;;;5013261;28;20097;-85
2022/02/06 01:25:10;;;;;;;8.33;2.50;;;1.50;99.90;;;;;;5013648;28;20030;-85
2022/02/06 01:27:41;;;;;;;7.40;2.03;;;1.50;99.90;;;;;;5012270;28;20045;-85
2022/02/06 01:30:20;;;;;;;6.80;2.10;;;1.40;99.90;;;;;;5011580;28;20033;-85
2022/02/06 01:33:11;;;;;;;7.60;2.30;;;1.40;99.90;;;;;;5013125;28;20049;-85
2022/02/06 01:35:42;;;;;;;8.27;1.90;;;1.40;99.90;;;;;;5011879;28;20056;-86
2022/02/06 01:40:59;;;;;;;5.88;2.45;;;1.30;99.90;;;;;;5012224;28;20026;-85
2022/02/06 01:43:33;;;;;;;6.27;2.00;;;1.40;99.90;;;;;;4997045;28;20469;-85
2022/02/06 01:46:25;;;;;;;5.93;1.83;;;1.30;99.90;;;;;;5012889;28;20044;-86
2022/02/06 02:05:43;;;;;;;4.97;2.10;;;1.00;99.90;;;;;;5011507;28;20390;-86
2022/02/06 02:48:12;;;;;;;7.40;1.70;;;0.40;99.90;;;;;;5015592;28;20555;-86
2022/02/06 02:50:42;;;;;;;12.60;2.60;;;0.40;99.90;;;;;;4997403;28;20383;-86
2022/02/06 02:53:22;;;;;;;5.70;1.50;;;0.30;99.90;;;;;;4996841;28;20404;-87
2022/02/06 02:58:24;;;;;;;9.47;2.50;;;0.30;99.90;;;;;;4995830;28;20042;-87
2022/02/06 03:01:31;;;;;;;10.00;2.30;;;0.30;99.90;;;;;;5001073;28;20018;-86
2022/02/06 03:03:44;;;;;;;5.97;1.57;;;0.20;99.90;;;;;;4993576;28;20058;-86
2022/02/06 03:06:10;;;;;;;8.90;2.77;;;0.20;99.90;;;;;;4994498;28;20078;-86
2022/02/06 03:08:38;;;;;;;12.07;2.00;;;0.30;99.90;;;;;;4994601;28;20080;-79
2022/02/06 03:11:08;;;;;;;6.83;2.23;;;0.30;99.90;;;;;;5002120;28;20030;-79
2022/02/06 03:13:39;;;;;;;3.83;1.50;;;0.40;99.90;;;;;;5013679;28;20033;-79
2022/02/06 03:16:19;;;;;;;8.70;1.83;;;0.40;99.90;;;;;;5013843;28;20037;-78
2022/02/06 03:19:39;;;;;;;5.23;1.57;;;0.40;99.90;;;;;;5013401;28;20030;-78
2022/02/06 03:21:32;;;;;;;7.13;1.90;;;0.50;99.90;;;;;;5006498;28;20042;-79
2022/02/06 03:24:09;;;;;;;4.90;2.13;;;0.50;99.90;;;;;;5013445;28;20022;-79
2022/02/06 03:26:35;;;;;;;6.57;2.13;;;0.60;99.90;;;;;;5013752;28;20026;-79
2022/02/06 03:29:00;;;;;;;8.67;2.10;;;0.60;99.90;;;;;;4995431;28;20041;-79
2022/02/06 03:31:26;;;;;;;3.97;1.40;;;0.70;99.90;;;;;;5013716;28;20084;-79
2022/02/06 03:33:52;;;;;;;8.60;1.80;;;0.80;99.90;;;;;;5013370;28;20467;-79
2022/02/06 03:36:21;;;;;;;7.77;1.67;;;0.80;99.90;;;;;;5013460;28;20050;-79
2022/02/06 03:38:48;;;;;;;5.20;1.87;;;0.80;99.90;;;;;;5012556;28;20038;-79
2022/02/06 03:41:15;;;;;;;6.47;1.80;;;0.90;99.90;;;;;;5013329;28;20026;-79
2022/02/06 03:46:18;;;;;;;10.20;1.70;;;1.00;99.90;;;;;;5013780;28;20076;-79
2022/02/06 03:48:54;;;;;;;5.57;1.73;;;1.10;99.90;;;;;;5013032;28;20026;-79
2022/02/06 03:51:23;;;;;;;7.50;2.67;;;1.10;99.90;;;;;;4995694;28;20034;-79
2022/02/06 03:53:51;;;;;;;7.00;1.63;;;1.10;99.90;;;;;;5013042;28;20037;-79
2022/02/06 03:56:18;;;;;;;4.00;1.50;;;1.20;99.90;;;;;;4995757;28;20030;-79
2022/02/06 03:58:44;;;;;;;6.63;2.13;;;1.30;99.90;;;;;;5012818;28;20076;-79
2022/02/06 04:01:09;;;;;;;3.20;1.50;;;1.30;99.90;;;;;;5011234;28;20454;-79
2022/02/06 04:03:35;;;;;;;9.50;2.70;;;1.30;99.90;;;;;;5004211;28;20029;-79
2022/02/06 04:06:01;;;;;;;5.83;1.57;;;1.30;99.90;;;;;;5012960;28;20379;-79
2022/02/06 04:08:28;;;;;;;7.77;1.40;;;1.40;99.90;;;;;;5012493;28;20034;-80
2022/02/06 04:10:56;;;;;;;5.37;1.57;;;1.40;99.90;;;;;;5012984;28;20030;-77
2022/02/06 04:13:24;;;;;;;6.47;1.87;;;1.50;99.90;;;;;;5013726;28;20164;-78
2022/02/06 04:15:57;;;;;;;2.80;1.40;;;1.50;99.90;;;;;;5014066;28;20240;-79
2022/02/06 04:18:47;;;;;;;5.60;1.70;;;1.60;99.90;;;;;;5012384;28;20041;-77
2022/02/06 04:21:12;;;;;;;6.03;1.90;;;1.70;99.90;;;;;;5012834;28;20018;-78
2022/02/06 04:23:38;;;;;;;6.67;1.70;;;1.80;99.90;;;;;;5012038;28;20087;-79
2022/02/06 04:26:04;;;;;;;6.63;1.90;;;1.90;99.90;;;;;;5012658;28;20030;-79
2022/02/06 04:28:29;;;;;;;4.27;1.77;;;1.90;99.90;;;;;;5012247;28;20030;-78
2022/02/06 04:30:55;;;;;;;6.10;1.87;;;2.00;99.90;;;;;;5012356;28;20033;-79
2022/02/06 04:33:20;;;;;;;4.47;1.57;;;2.20;99.90;;;;;;5012508;28;20026;-79
2022/02/06 04:35:51;;;;;;;3.33;1.60;;;2.20;99.90;;;;;;5012275;28;20049;-79
2022/02/06 04:39:10;;;;;;;5.87;1.67;;;2.20;99.90;;;;;;5011830;28;20030;-79
2022/02/06 04:41:18;;;;;;;9.87;2.13;;;2.30;99.90;;;;;;5004062;28;20048;-79
2022/02/06 04:44:06;;;;;;;6.03;1.50;;;2.40;99.90;;;;;;4994546;28;20025;-79
2022/02/06 04:47:14;;;;;;;15.32;3.10;;;2.40;99.90;;;;;;5012110;28;20033;-77
2022/02/06 04:54:53;;;;;;;7.60;2.20;;;2.40;99.90;;;;;;5013424;28;20036;-86
2022/02/06 05:11:29;;;;;;;9.70;2.20;;;2.80;99.90;;;;;;5013401;28;20044;-87
2022/02/06 05:29:32;;;;;;;6.77;2.03;;;2.90;99.90;;;;;;4993382;28;20030;-86
2022/02/06 05:34:42;;;;;;;7.13;1.63;;;2.80;99.90;;;;;;5011766;28;20084;-86
2022/02/06 05:37:07;;;;;;;3.77;1.30;;;2.80;99.90;;;;;;5012559;28;20255;-86
2022/02/06 05:39:33;;;;;;;8.00;1.83;;;2.80;99.90;;;;;;5012520;28;20097;-87
2022/02/06 05:41:58;;;;;;;6.23;1.50;;;2.80;99.90;;;;;;5009958;28;20029;-86
2022/02/06 05:44:24;;;;;;;6.30;1.70;;;3.00;99.90;;;;;;5012279;28;20028;-86
2022/02/06 05:46:50;;;;;;;5.27;1.43;;;3.00;99.90;;;;;;4995243;28;20050;-86
2022/02/06 05:49:15;;;;;;;4.67;1.40;;;3.00;99.90;;;;;;4994609;28;20196;-86
2022/02/06 05:51:43;;;;;;;3.23;1.50;;;3.00;99.90;;;;;;5012410;28;20057;-86
2022/02/06 05:54:10;;;;;;;3.27;1.43;;;3.10;99.90;;;;;;4994740;28;20026;-86
2022/02/06 05:56:36;;;;;;;5.13;1.63;;;3.10;99.90;;;;;;4994793;28;20374;-86
2022/02/06 05:59:03;;;;;;;4.10;1.03;;;3.10;99.90;;;;;;5012593;28;20116;-86
2022/02/06 06:01:29;;;;;;;5.87;1.93;;;3.30;99.90;;;;;;5012177;28;20022;-86
2022/02/06 06:03:55;;;;;;;3.43;1.60;;;3.30;99.90;;;;;;5011290;28;20455;-86
2022/02/06 06:06:20;;;;;;;5.37;1.27;;;3.30;99.90;;;;;;5012575;28;20022;-86
2022/02/06 06:08:46;;;;;;;4.43;1.50;;;3.20;99.90;;;;;;4994669;28;20033;-87
2022/02/06 06:11:11;;;;;;;6.30;1.50;;;3.20;99.90;;;;;;5012406;28;20521;-87
2022/02/06 06:13:37;;;;;;;3.30;1.37;;;3.20;99.90;;;;;;4994542;28;20113;-86
2022/02/06 06:16:04;;;;;;;4.37;1.37;;;3.20;99.90;;;;;;5009222;28;20412;-86
2022/02/06 06:18:30;;;;;;;5.97;1.70;;;3.30;99.90;;;;;;4993720;28;20475;-87
2022/02/06 06:20:56;;;;;;;2.13;1.30;;;3.40;99.90;;;;;;4994685;28;20070;-87
2022/02/06 06:23:24;;;;;;;5.77;1.60;;;3.50;99.90;;;;;;4993582;28;20041;-87
2022/02/06 06:25:51;;;;;;;3.30;1.23;;;3.40;99.90;;;;;;5002299;28;20391;-87
2022/02/06 06:28:17;;;;;;;7.77;1.60;;;3.40;99.90;;;;;;5002647;28;20061;-87
2022/02/06 06:30:43;;;;;;;3.27;1.37;;;3.40;99.90;;;;;;5011398;28;20121;-87
2022/02/06 06:33:09;;;;;;;5.67;1.60;;;3.40;99.90;;;;;;5012755;28;20030;-87
2022/02/06 06:35:34;;;;;;;4.27;1.30;;;3.40;99.90;;;;;;5012460;28;20026;-86
2022/02/06 06:38:01;;;;;;;4.83;1.53;;;3.50;99.90;;;;;;5004823;28;20041;-85
2022/02/06 06:40:27;;;;;;;4.17;1.50;;;3.50;99.90;;;;;;5001084;28;20035;-85
2022/02/06 06:42:53;;;;;;;4.43;1.30;;;3.50;99.90;;;;;;5007489;28;20022;-86
2022/02/06 06:45:19;;;;;;;4.90;1.40;;;3.50;99.90;;;;;;5012330;28;20072;-86
2022/02/06 06:47:55;;;;;;;3.93;1.40;;;3.50;99.90;;;;;;5012563;28;20228;-86
2022/02/06 06:50:22;;;;;;;7.83;1.83;;;3.50;99.90;;;;;;5004619;28;20158;-86
2022/02/06 06:52:47;;;;;;;4.20;1.20;;;3.50;99.90;;;;;;4991655;28;20367;-86
2022/02/06 06:55:17;;;;;;;8.67;2.07;;;3.40;99.90;;;;;;5012297;28;20034;-87
2022/02/06 06:57:51;;;;;;;4.57;1.43;;;3.40;99.90;;;;;;5011978;28;20048;-86
2022/02/06 07:00:23;;;;;;;5.60;1.80;;;3.40;99.90;;;;;;5007384;28;20101;-87
2022/02/06 07:02:50;;;;;;;3.63;1.20;;;3.50;99.90;;;;;;5008862;28;20025;-87
2022/02/06 07:05:16;;;;;;;4.77;1.40;;;3.50;99.90;;;;;;5007870;28;20026;-87
2022/02/06 07:07:41;;;;;;;4.50;1.43;;;3.50;99.90;;;;;;5003736;28;20474;-88
2022/02/06 07:10:07;;;;;;;7.53;1.33;;;3.60;99.90;;;;;;5008345;28;20033;-83
2022/02/06 07:12:33;;;;;;;4.63;1.60;;;3.60;99.90;;;;;;5010906;28;20145;-87
2022/02/06 07:15:00;;;;;;;8.07;1.67;;;3.70;99.90;;;;;;5012275;28;20061;-87
2022/02/06 07:17:26;;;;;;;2.80;1.17;;;3.60;99.90;;;;;;5015753;28;20128;-87
2022/02/06 07:19:51;;;;;;;11.13;1.50;;;3.70;99.90;;;;;;5015540;28;20034;-87
2022/02/06 07:22:20;;;;;;;7.47;1.47;;;3.80;99.90;;;;;;4998112;28;20026;-87
2022/02/06 07:24:47;;;;;;;6.77;1.43;;;3.80;99.90;;;;;;5015507;28;20104;-87
2022/02/06 07:29:42;;;;;;;3.23;1.70;;;3.80;99.90;;;;;;5015297;28;20535;-88
2022/02/06 07:32:08;;;;;;;4.70;1.47;;;3.90;99.90;;;;;;5004377;28;20121;-86
2022/02/06 07:34:34;;;;;;;8.33;1.57;;;3.90;99.90;;;;;;5004447;28;20026;-86
2022/02/06 07:36:59;;;;;;;7.87;1.60;;;3.90;99.90;;;;;;5002488;28;20123;-86
2022/02/06 07:39:25;;;;;;;4.73;1.17;;;3.90;99.90;;;;;;4996168;28;20034;-86
2022/02/06 07:41:51;;;;;;;5.73;1.40;;;3.90;99.90;;;;;;5015328;28;20470;-85
2022/02/06 07:44:16;;;;;;;3.67;1.20;;;3.90;99.90;;;;;;5014821;28;20026;-87
2022/02/06 07:46:47;;;;;;;3.50;1.47;;;4.00;99.90;;;;;;5015110;28;20030;-86
2022/02/06 07:49:15;;;;;;;5.53;1.70;;;4.00;99.90;;;;;;5003889;28;20053;-86
2022/02/06 07:51:41;;;;;;;4.10;1.20;;;3.90;99.90;;;;;;5015359;28;20026;-86
2022/02/06 07:54:07;;;;;;;4.73;1.50;;;3.90;99.90;;;;;;5014832;28;20022;-86
2022/02/06 07:56:33;;;;;;;6.60;1.60;;;4.00;99.90;;;;;;5015299;28;20096;-87
2022/02/06 07:58:58;;;;;;;3.47;1.53;;;4.00;99.90;;;;;;5014529;28;20068;-86
2022/02/06 08:01:26;;;;;;;4.00;1.20;;;3.90;99.90;;;;;;5014465;28;20080;-85
2022/02/06 08:03:51;;;;;;;5.97;1.43;;;3.90;99.90;;;;;;5014802;28;20045;-86
2022/02/06 08:06:17;;;;;;;5.83;1.33;;;4.00;99.90;;;;;;5014498;28;20054;-87
2022/02/06 08:08:43;;;;;;;5.80;2.03;;;4.20;99.90;;;;;;5005837;28;20033;-87
2022/02/06 08:11:13;;;;;;;7.70;1.50;;;4.20;99.90;;;;;;4986490;28;20049;-81
2022/02/06 08:13:42;;;;;;;5.10;1.57;;;4.30;99.90;;;;;;5006127;28;20041;-89
2022/02/06 08:16:08;;;;;;;5.90;1.37;;;4.40;99.90;;;;;;4994774;28;20729;-69
2022/02/06 08:18:40;;;;;;;4.13;1.30;;;4.60;99.90;;;;;;5009967;28;20022;-88
2022/02/06 08:21:10;;;;;;;9.27;1.40;;;4.60;99.90;;;;;;5014951;28;20030;-86
2022/02/06 08:23:36;;;;;;;3.97;1.47;;;4.70;99.90;;;;;;5011619;28;20038;-86
2022/02/06 08:26:02;;;;;;;7.90;1.73;;;4.80;99.90;;;;;;5006474;28;20084;-86
2022/02/06 08:28:28;;;;;;;8.80;1.50;;;4.90;99.90;;;;;;5004734;28;20182;-88
2022/02/06 08:30:53;;;;;;;4.77;1.50;;;5.00;99.90;;;;;;5002498;28;20030;-88
2022/02/06 08:33:19;;;;;;;2.83;1.27;;;5.10;99.90;;;;;;5014113;28;20064;-87
2022/02/06 08:35:47;;;;;;;6.97;1.57;;;5.20;99.90;;;;;;5009451;28;20039;-85
2022/02/06 08:38:13;;;;;;;5.43;1.80;;;5.20;99.90;;;;;;5009798;28;20041;-88
2022/02/06 08:40:39;;;;;;;5.03;1.57;;;5.30;99.90;;;;;;5011141;28;20088;-88
2022/02/06 08:43:06;;;;;;;4.63;1.70;;;5.30;99.90;;;;;;5012036;28;20054;-86
2022/02/06 08:45:33;;;;;;;5.17;1.57;;;5.20;99.90;;;;;;4995873;28;20026;-80
2022/02/06 08:47:58;;;;;;;3.50;1.27;;;5.40;99.90;;;;;;5001918;28;20113;-80
2022/02/06 08:50:24;;;;;;;6.87;1.70;;;5.50;99.90;;;;;;4996687;28;20113;-80
2022/02/06 08:52:57;;;;;;;5.43;1.37;;;5.60;99.90;;;;;;5014042;28;20037;-80
2022/02/06 08:55:23;;;;;;;7.03;1.40;;;5.70;99.90;;;;;;5014111;28;20048;-80
2022/02/06 08:57:50;;;;;;;4.43;1.40;;;5.70;99.90;;;;;;5014094;28;20029;-79
2022/02/06 09:00:21;;;;;;;5.90;1.60;;;5.80;99.90;;;;;;5014354;28;20044;-80
2022/02/06 09:02:48;;;;;;;4.70;1.77;;;5.90;99.90;;;;;;5014512;28;20033;-80
2022/02/06 09:05:13;;;;;;;8.83;1.37;;;5.90;99.90;;;;;;5014605;28;20044;-79
2022/02/06 09:07:41;;;;;;;5.27;1.37;;;5.80;99.90;;;;;;5014160;28;20025;-79
2022/02/06 09:10:08;;;;;;;7.00;1.53;;;5.80;99.90;;;;;;5014510;28;20113;-79
2022/02/06 09:12:36;;;;;;;2.37;1.30;;;5.90;99.90;;;;;;4996417;28;20406;-78
2022/02/06 09:15:02;;;;;;;3.30;1.20;;;5.80;99.90;;;;;;4996374;28;20480;-78
2022/02/06 09:17:28;;;;;;;3.60;1.13;;;5.80;99.90;;;;;;4996335;28;20121;-78
2022/02/06 09:19:54;;;;;;;6.37;1.47;;;5.80;99.90;;;;;;5013956;28;20109;-78
2022/02/06 09:22:20;;;;;;;4.10;1.17;;;5.70;99.90;;;;;;5014023;28;20467;-78
2022/02/06 09:24:45;;;;;;;4.17;1.57;;;5.80;99.90;;;;;;5013823;28;20080;-78
2022/02/06 09:27:12;;;;;;;4.80;1.90;;;5.90;99.90;;;;;;5013773;28;20018;-79
2022/02/06 09:29:40;;;;;;;5.17;1.80;;;5.80;99.90;;;;;;5013849;28;20451;-79
2022/02/06 09:37:05;;;;;;;4.27;1.30;;;5.80;99.90;;;;;;5013615;28;20081;-79
2022/02/06 09:39:34;;;;;;;3.20;1.30;;;5.80;99.90;;;;;;4995955;28;20041;-78
2022/02/06 09:42:00;;;;;;;4.90;1.47;;;5.80;99.90;;;;;;5013481;28;20076;-82
2022/02/06 09:44:28;;;;;;;6.10;1.40;;;5.80;99.90;;;;;;5013727;28;20045;-83
2022/02/06 09:46:56;;;;;;;2.90;1.30;;;5.90;99.90;;;;;;5014017;28;20451;-82
2022/02/06 09:49:23;;;;;;;5.77;1.40;;;5.90;99.90;;;;;;4996215;28;20088;-82
2022/02/06 09:51:49;;;;;;;5.07;1.40;;;5.90;99.90;;;;;;5013725;28;20061;-82
2022/02/06 09:54:15;;;;;;;4.50;1.20;;;6.00;99.90;;;;;;5013490;28;20053;-82
2022/02/06 09:56:46;;;;;;;5.57;1.80;;;6.10;99.90;;;;;;5013385;28;20031;-82
2022/02/06 09:59:20;;;;;;;4.30;1.43;;;6.10;99.90;;;;;;5013342;28;20423;-81
2022/02/06 10:01:52;;;;;;;4.07;1.60;;;6.20;99.90;;;;;;4995552;28;20030;-82
2022/02/06 10:04:20;;;;;;;3.60;1.30;;;6.30;99.90;;;;;;5013533;28;20028;-82
2022/02/06 10:07:07;;;;;;;6.63;1.40;;;6.40;99.90;;;;;;5013569;28;20077;-82
2022/02/06 10:10:01;;;;;;;5.27;1.40;;;6.40;99.90;;;;;;5013271;28;20029;-83
2022/02/06 10:12:34;;;;;;;4.07;1.23;;;6.30;99.90;;;;;;5013324;28;20180;-83
2022/02/06 10:15:00;;;;;;;5.80;1.23;;;6.40;99.90;;;;;;5013122;28;20057;-84
2022/02/06 10:17:26;;;;;;;5.00;1.27;;;6.40;99.90;;;;;;5012670;28;20069;-84
2022/02/06 10:19:53;;;;;;;6.47;1.30;;;6.40;99.90;;;;;;5012497;28;20034;-84
2022/02/06 10:22:29;;;;;;;4.80;1.50;;;6.40;99.90;;;;;;5012668;28;20030;-84
2022/02/06 10:24:59;;;;;;;2.57;1.30;;;6.50;99.90;;;;;;5012347;28;20022;-84
2022/02/06 10:28:04;;;;;;;5.10;1.50;;;6.50;99.90;;;;;;5012294;28;20026;-84
2022/02/06 10:30:42;;;;;;;2.87;1.23;;;6.50;99.90;;;;;;5012010;28;20022;-84
2022/02/06 10:33:15;;;;;;;7.00;1.60;;;6.50;99.90;;;;;;5011928;28;20057;-84
2022/02/06 10:35:43;;;;;;;3.57;1.30;;;6.60;99.90;;;;;;5012505;28;20111;-84
2022/02/06 10:38:17;;;;;;;5.93;1.60;;;6.80;99.90;;;;;;5012575;28;20390;-84
2022/02/06 10:40:45;;;;;;;4.23;1.30;;;6.80;99.90;;;;;;5012342;28;20022;-84
2022/02/06 10:43:12;;;;;;;2.90;1.50;;;7.00;99.90;;;;;;5012434;28;20410;-84
2022/02/06 10:45:38;;;;;;;4.33;1.40;;;7.00;99.90;;;;;;5012466;28;20097;-84
2022/02/06 10:48:19;;;;;;;3.87;1.30;;;6.80;99.90;;;;;;4994060;28;20426;-84
2022/02/06 10:50:45;;;;;;;4.13;1.50;;;6.80;99.90;;;;;;5013175;28;20034;-85
2022/02/06 10:53:14;;;;;;;5.77;1.53;;;6.80;99.90;;;;;;5016281;28;20030;-85
2022/02/06 10:55:58;;;;;;;4.43;1.20;;;6.80;99.90;;;;;;5016738;28;20061;-85
2022/02/06 10:58:32;;;;;;;4.17;1.40;;;6.80;99.90;;;;;;5016596;28;20029;-84
2022/02/06 11:01:05;;;;;;;4.20;1.50;;;6.80;99.90;;;;;;4998766;28;20477;-85
2022/02/06 11:03:36;;;;;;;4.37;1.23;;;6.80;99.90;;;;;;5016290;28;20030;-85
2022/02/06 11:06:11;;;;;;;4.17;1.40;;;6.80;99.90;;;;;;5016081;28;20026;-84
2022/02/06 11:08:38;;;;;;;7.85;1.27;;;7.00;99.90;;;;;;5016322;28;20032;-84
2022/02/06 11:11:04;;;;;;;3.80;1.33;;;7.00;99.90;;;;;;5016465;28;20053;-85
2022/02/06 11:13:32;;;;;;;3.67;1.40;;;7.10;99.90;;;;;;5009390;28;20144;-84
2022/02/06 11:15:59;;;;;;;7.47;1.60;;;7.20;99.90;;;;;;5007144;28;20065;-84
2022/02/06 11:18:32;;;;;;;4.63;1.30;;;7.10;99.90;;;;;;5007272;28;20084;-89
2022/02/06 11:21:09;;;;;;;5.77;1.70;;;7.20;99.90;;;;;;5016094;28;20018;-90
2022/02/06 11:23:37;;;;;;;4.23;1.30;;;7.10;99.90;;;;;;5015871;28;20467;-90
2022/02/06 11:26:04;;;;;;;5.17;1.40;;;7.10;99.90;;;;;;4996222;28;20033;-89
2022/02/06 11:28:30;;;;;;;9.77;1.93;;;7.10;99.90;;;;;;4996132;28;20061;-88
2022/02/06 11:30:56;;;;;;;8.40;1.70;;;7.10;99.90;;;;;;4978572;28;20038;-89
2022/02/06 11:33:22;;;;;;;9.33;2.70;;;7.20;99.90;;;;;;4996238;28;20089;-89
2022/02/06 11:35:56;;;;;;;3.07;1.20;;;7.20;99.90;;;;;;4995891;28;20053;-87
2022/02/06 11:44:12;;;;;;;5.97;1.40;;;7.00;99.90;;;;;;5012969;28;20033;-83
2022/02/06 11:46:55;;;;;;;2.67;1.13;;;7.00;99.90;;;;;;5011538;28;20038;-83
2022/02/06 11:49:22;;;;;;;2.33;1.10;;;7.00;99.90;;;;;;5012597;28;20063;-82
2022/02/06 11:51:59;;;;;;;7.10;1.40;;;7.00;99.90;;;;;;5012990;28;20422;-81
2022/02/06 11:54:49;;;;;;;3.80;1.30;;;6.90;99.90;;;;;;5013027;28;20077;-82
2022/02/06 12:00:06;;;;;;;4.77;1.20;;;6.80;99.90;;;;;;5013293;28;20057;-82
2022/02/06 12:02:39;;;;;;;5.80;1.47;;;6.80;99.90;;;;;;4999113;28;20087;-81
2022/02/06 12:05:23;;;;;;;5.67;1.20;;;6.90;99.90;;;;;;5011241;28;20033;-82
2022/02/06 12:08:10;;;;;;;3.40;1.37;;;6.90;99.90;;;;;;5011582;28;20030;-82
2022/02/06 12:10:36;;;;;;;4.70;1.27;;;6.90;99.90;;;;;;5011707;28;20022;-83
2022/02/06 12:15:54;;;;;;;3.30;1.40;;;6.80;99.90;;;;;;5011147;28;20038;-83
2022/02/06 12:18:28;;;;;;;5.53;1.80;;;6.90;99.90;;;;;;5012418;28;20110;-81
2022/02/06 12:20:55;;;;;;;3.00;1.00;;;6.90;99.90;;;;;;5012809;28;20034;-81
2022/02/06 12:23:39;;;;;;;3.60;1.07;;;6.80;99.90;;;;;;5012902;28;20030;-84
2022/02/06 12:26:32;;;;;;;2.63;1.10;;;6.80;99.90;;;;;;5009089;28;20080;-83
2022/02/06 12:29:10;;;;;;;4.10;1.30;;;6.80;99.90;;;;;;5011252;28;20034;-83
2022/02/06 12:32:07;;;;;;;4.00;1.20;;;6.80;99.90;;;;;;5008401;28;20180;-81
2022/02/06 12:37:37;;;;;;;5.27;1.43;;;6.80;99.90;;;;;;5007722;28;20044;-80
2022/02/06 12:40:10;;;;;;;3.93;1.30;;;6.80;99.90;;;;;;5011521;28;20026;-80
2022/02/06 12:42:42;;;;;;;4.33;1.20;;;6.90;99.90;;;;;;5009490;28;20486;-79
2022/02/06 12:45:20;;;;;;;2.30;1.17;;;6.80;99.90;;;;;;5014108;28;20041;-82
2022/02/06 12:47:51;;;;;;;3.33;1.20;;;6.90;99.90;;;;;;5009834;28;20026;-82
2022/02/06 12:50:26;;;;;;;2.40;1.40;;;6.80;99.90;;;;;;5011083;28;20388;-81
2022/02/06 12:52:52;;;;;;;3.57;1.30;;;6.90;99.90;;;;;;4991399;28;20037;-83
2022/02/06 12:55:19;;;;;;;5.67;1.20;;;6.80;99.90;;;;;;5011490;28;20033;-81
2022/02/06 12:57:52;;;;;;;5.43;1.20;;;6.80;99.90;;;;;;5013822;28;20491;-81
2022/02/06 13:00:42;;;;;;;4.33;1.50;;;6.80;99.90;;;;;;5009672;28;20364;-82
2022/02/06 13:03:32;;;;;;;3.87;1.37;;;6.90;99.90;;;;;;4991901;28;20033;-82
2022/02/06 13:06:09;;;;;;;5.23;1.10;;;6.80;99.90;;;;;;5007972;28;20034;-81
2022/02/06 13:08:38;;;;;;;2.30;1.20;;;6.90;99.90;;;;;;5010209;28;20121;-81
2022/02/06 13:11:10;;;;;;;4.80;1.20;;;6.90;99.90;;;;;;5011547;28;20032;-81
2022/02/06 13:13:43;;;;;;;2.40;1.00;;;7.00;99.90;;;;;;5010314;28;20042;-81
2022/02/06 13:30:24;;;;;;;4.30;1.30;;;6.90;99.90;;;;;;5008010;28;20026;-82
2022/02/06 13:33:03;;;;;;;3.25;1.17;;;6.80;99.90;;;;;;5008946;28;20498;-80
2022/02/06 13:38:06;;;;;;;2.80;1.30;;;6.90;99.90;;;;;;5010552;28;20033;-82
2022/02/06 13:40:33;;;;;;;3.05;1.20;;;6.70;99.90;;;;;;5008334;28;20045;-79
2022/02/06 13:43:07;;;;;;;3.13;1.50;;;6.70;99.90;;;;;;5009787;28;20060;-80
2022/02/06 13:45:35;;;;;;;1.40;1.00;;;6.70;99.90;;;;;;5008366;28;20474;-81
2022/02/06 13:48:02;;;;;;;2.57;1.20;;;6.60;99.90;;;;;;5010753;28;20487;-81
2022/02/06 13:50:29;;;;;;;3.37;1.10;;;6.70;99.90;;;;;;4993156;28;20068;-80
2022/02/06 13:53:17;;;;;;;2.60;1.23;;;6.70;99.90;;;;;;5011234;28;20738;-81
2022/02/06 13:55:45;;;;;;;4.93;1.37;;;6.60;99.90;;;;;;5011238;28;20036;-82
2022/02/06 13:58:22;;;;;;;3.17;1.30;;;6.60;99.90;;;;;;5010432;28;20018;-82
2022/02/06 14:00:54;;;;;;;2.40;1.20;;;6.60;99.90;;;;;;4992020;28;20026;-81
2022/02/06 14:03:21;;;;;;;2.50;1.50;;;6.60;99.90;;;;;;5010509;28;20029;-81
2022/02/06 14:05:51;;;;;;;2.90;1.27;;;6.50;99.90;;;;;;5010766;28;20028;-79
2022/02/06 14:08:19;;;;;;;3.43;1.70;;;6.50;99.90;;;;;;5008730;28;20030;-81
2022/02/06 14:11:02;;;;;;;3.57;1.70;;;6.40;99.90;;;;;;5010729;28;20026;-81
2022/02/06 14:13:28;;;;;;;4.23;1.40;;;6.50;99.90;;;;;;4989436;28;20026;-81
2022/02/06 14:16:04;;;;;;;2.40;1.13;;;6.50;99.90;;;;;;5009932;28;20040;-80
2022/02/06 14:18:31;;;;;;;1.73;1.20;;;6.40;99.90;;;;;;5010069;28;20022;-80
2022/02/06 14:20:58;;;;;;;2.63;1.30;;;6.40;99.90;;;;;;5012242;28;20022;-85
2022/02/06 14:23:23;;;;;;;3.10;1.20;;;6.40;99.90;;;;;;5012385;28;20434;-86
2022/02/06 14:25:49;;;;;;;5.17;1.60;;;6.30;99.90;;;;;;4994217;28;20025;-86
2022/02/06 14:28:26;;;;;;;4.27;1.27;;;6.30;99.90;;;;;;4994684;28;20057;-85
2022/02/06 14:30:52;;;;;;;2.73;1.23;;;6.30;99.90;;;;;;5012598;28;20034;-83
2022/02/06 14:33:27;;;;;;;4.03;1.10;;;6.40;99.90;;;;;;4994609;28;20042;-87
2022/02/06 14:35:57;;;;;;;4.78;1.40;;;6.40;99.90;;;;;;5011445;28;20434;-83
2022/02/06 14:38:41;;;;;;;2.50;1.30;;;6.50;99.90;;;;;;5010631;28;20530;-84
2022/02/06 14:43:42;;;;;;;4.07;1.58;;;6.40;99.90;;;;;;5011193;28;20022;-84
2022/02/06 14:46:09;;;;;;;3.90;1.30;;;6.40;99.90;;;;;;5012749;28;20467;-83
2022/02/06 14:48:35;;;;;;;3.10;1.33;;;6.40;99.90;;;;;;5010329;28;20025;-82
2022/02/06 14:51:01;;;;;;;5.73;1.50;;;6.50;99.90;;;;;;5008872;28;20030;-82
2022/02/06 14:53:26;;;;;;;2.90;1.53;;;6.50;99.90;;;;;;5006157;28;20134;-81
2022/02/06 14:55:56;;;;;;;3.00;1.20;;;6.50;99.90;;;;;;4991280;28;20125;-85
2022/02/06 14:58:23;;;;;;;3.93;1.53;;;6.50;99.90;;;;;;5009009;28;20546;-64
2022/02/06 15:00:51;;;;;;;2.63;1.17;;;6.60;99.90;;;;;;5006963;28;20050;-84
2022/02/06 15:03:17;;;;;;;5.13;1.40;;;6.50;99.90;;;;;;5008634;28;20056;-84
2022/02/06 15:05:44;;;;;;;4.37;1.20;;;6.50;99.90;;;;;;5008212;28;20026;-83
2022/02/06 15:08:10;;;;;;;2.13;1.20;;;6.60;99.90;;;;;;5007594;28;20042;-84
2022/02/06 15:10:36;;;;;;;2.03;1.00;;;6.60;99.90;;;;;;5008656;28;20026;-83
2022/02/06 15:13:03;;;;;;;3.50;1.10;;;6.60;99.90;;;;;;5007726;28;20052;-83
2022/02/06 15:15:38;;;;;;;1.20;1.00;;;6.60;99.90;;;;;;5007691;28;20034;-83
2022/02/06 15:18:21;;;;;;;2.03;1.00;;;6.60;99.90;;;;;;5008275;28;20052;-84
2022/02/06 15:20:52;;;;;;;1.93;1.10;;;6.40;99.90;;;;;;5008281;28;20100;-85
2022/02/06 15:23:18;;;;;;;3.70;1.40;;;6.40;99.90;;;;;;5008051;28;20121;-84
2022/02/06 15:25:44;;;;;;;1.70;1.23;;;6.30;99.90;;;;;;5008900;28;20029;-85
2022/02/06 15:28:09;;;;;;;2.93;1.23;;;6.20;99.90;;;;;;4990849;28;20088;-83
2022/02/06 15:30:36;;;;;;;2.63;0.83;;;6.20;99.90;;;;;;5009314;28;20069;-84
2022/02/06 15:33:04;;;;;;;2.53;1.40;;;6.20;99.90;;;;;;5012259;28;20029;-84
2022/02/06 15:35:30;;;;;;;1.93;1.30;;;6.00;99.90;;;;;;4988074;28;20037;-85
2022/02/06 15:37:58;;;;;;;2.50;1.03;;;6.00;99.90;;;;;;5009279;28;20050;-85
2022/02/06 15:40:23;;;;;;;2.23;0.90;;;6.00;99.90;;;;;;5012785;28;20030;-84
2022/02/06 15:42:49;;;;;;;1.73;1.10;;;6.00;99.90;;;;;;5012468;28;20041;-85
2022/02/06 15:45:14;;;;;;;2.13;1.30;;;5.90;99.90;;;;;;5011130;28;20072;-85